Adams, WI

3:39 PM CST on February 01, 2015 (GMT -0600)
APRSWXNET Necedah WI US | Change Station
CLOSE
Current Station
Personal Weather Station
Location: Friendship, WI
Elevation: 885 ft
Nearby Weather Stations
Active Advisory: Winter Weather Advisory Active Notice: Public Information Statement

Elev 885 ft 44.00 °N, 89.99 °W | Updated 39 minutes ago

Snow
Snow
12 °F
Feels Like 2 °F
N
6
Wind Variable Wind from East
Gusts 14.0 mph

Today
High -- | Low -- °F
--% Chance of Precip.
Yesterday
High -- | Low -- °F
Precip. -- in
7:16 AM 5:09 PM
Waxing Gibbous, 96% visible
Pressure 30.14 in
Visibility 3.0 miles
Clouds Mostly Cloudy 1200 ft
Overcast 2000 ft
Windchill 2 °F
Dew Point 8 °F
Humidity 85%
Rainfall 0.00 in
Snow Depth Not available.
UV 0 out of 12
Pollen .10 out of 12
Air Quality Not available.
Flu Activity Not available.
METAR KVOK 012058Z 02010G18KT 3SM -SN BLSN BR BKN012 OVC020 M11/M13 A3007 RMK AO2A SLP204 60000 55012

More Conditions Fewer Conditions

Pressure 30.14 in
Visibility 3.0 miles
Clouds Mostly Cloudy 1200 ft
Overcast 2000 ft
Windchill 2 °F
Dew Point 8 °F
Humidity 85%
Rainfall 0.00 in
Snow Depth Not available.
UV 0 out of 12
Pollen .10 out of 12
Air Quality Not available.
Flu Activity Not available.
METAR KVOK 012058Z 02010G18KT 3SM -SN BLSN BR BKN012 OVC020 M11/M13 A3007 RMK AO2A SLP204 60000 55012

More Conditions Fewer Conditions

10-Day Weather Forecast

Almanac

Astronomy

Feb. 01, 2015 Rise Set
Actual Time
Civil Twilight
Nautical Twilight
Astronomical Twilight
Moon
Length of Visible Light
Length of Day
Tomorrow will be .
, % of the Moon is Illuminated

Today's Extremes

State Highs State Lows

Community

WunderPhotos

Upload Photos

1,792,553 photos uploaded!

WunderBlogs® & News

Nearby

Air Quality

  Air Quality AQ Index Pollutant
Not available.

Snow Depth

Station Depth Elevation

Earthquake Activity

City Distance Mag. Time & Date
Minimum magnitude displayed is 2.5.

Coastal Water Temperatures

Place Temperature

Nearby Weather Stations